»·PEaware :: N6999J KOXR-KSMX

N6999J :: KOXR-KSMX

FLIGHT INFORMATION

Flight Status: Arrived
Operator: Privately registered:
United States
More flights under this callsign
Pilot: Bryan N. (13862)
Aircraft: PIPER PA-28R-201 ARROW
(P28R)
More flights by this aircraft type
Origin: KOXR Oxnard
United States
Destination: KSMX Santa Maria Pub/Capt Hancock
United States
More flights between these airports :: More routes between these airports
Route: DEANO V25 RZS KOAKS
File this flight plan on PilotEdge
Remarks: +CW / TEC route VTUP34 - Simulating LIFR
Altitude:
(Current/Filed)
6,000ft
Speed:
(Current/Filed)
135kts
Departed: 19-Oct-19 08:27 AM
Arrived: 19-Oct-19 09:16 AM
Distance/Time
Traveled:
74nm/0:49
Distance/Time
To Go:
Arrived

Flight Plot

Page will automatically refresh every two minutes.

Flight plan parsing failed; only flown route is shown


Map Options




Map Legend


Flown Route
Filed Route
Departure Airport
Arrival Airport
Navaid (VOR, NDB)
Fix

Horizontal Profiles

Position Reports

Time Latitude Longitude Heading Altitude Ground
Speed
19-Oct-19 08:04 34.198877 -119.216279 180 46ft 0kts
19-Oct-19 08:05 34.198877 -119.216279 180 46ft 0kts
19-Oct-19 08:06 34.198877 -119.216279 180 46ft 0kts
19-Oct-19 08:07 34.198873 -119.216279 180 46ft 0kts
19-Oct-19 08:08 34.198870 -119.216279 180 46ft 0kts
19-Oct-19 08:09 34.198867 -119.216279 180 46ft 0kts
19-Oct-19 08:10 34.198864 -119.216279 180 46ft 0kts
19-Oct-19 08:11 34.198860 -119.216280 180 46ft 0kts
19-Oct-19 08:12 34.198857 -119.216280 180 46ft 0kts
19-Oct-19 08:13 34.198854 -119.216280 180 46ft 0kts
19-Oct-19 08:14 34.198752 -119.216276 158 46ft 3kts
19-Oct-19 08:15 34.199811 -119.215432 97 46ft 11kts
19-Oct-19 08:16 34.199751 -119.210562 90 46ft 13kts
19-Oct-19 08:17 34.199702 -119.206649 90 46ft 11kts
19-Oct-19 08:18 34.199646 -119.202372 89 46ft 12kts
19-Oct-19 08:19 34.199599 -119.198518 91 46ft 9kts
19-Oct-19 08:20 34.200023 -119.198070 281 46ft 0kts
19-Oct-19 08:21 34.200023 -119.198073 281 46ft 0kts
19-Oct-19 08:22 34.200025 -119.198082 281 46ft 0kts
19-Oct-19 08:23 34.200026 -119.198089 281 46ft 0kts
19-Oct-19 08:24 34.200026 -119.198092 281 46ft 0kts
19-Oct-19 08:25 34.200545 -119.198194 2 46ft 6kts
19-Oct-19 08:26 34.200303 -119.216164 271 475ft 93kts
19-Oct-19 08:27 34.198428 -119.249303 266 1602ft 97kts
19-Oct-19 08:28 34.195253 -119.281767 267 2605ft 94kts
19-Oct-19 08:29 34.203441 -119.310770 309 3385ft 99kts
19-Oct-19 08:31 34.221001 -119.337273 307 4246ft 102kts
19-Oct-19 08:32 34.239130 -119.364801 308 4999ft 107kts
19-Oct-19 08:33 34.257422 -119.392357 307 5753ft 106kts
19-Oct-19 08:34 34.277412 -119.422554 308 6054ft 130kts
19-Oct-19 08:35 34.300985 -119.457514 307 6053ft 136kts
19-Oct-19 08:36 34.324835 -119.493846 308 6003ft 138kts
19-Oct-19 08:37 34.348829 -119.529886 308 6007ft 137kts
19-Oct-19 08:38 34.372997 -119.565465 307 6026ft 135kts
19-Oct-19 08:39 34.397051 -119.601019 305 6026ft 136kts
19-Oct-19 08:40 34.420327 -119.637440 308 6031ft 136kts
19-Oct-19 08:41 34.444680 -119.672916 308 6037ft 136kts
19-Oct-19 08:42 34.469053 -119.708987 307 6011ft 143kts
19-Oct-19 08:43 34.493131 -119.747276 308 6019ft 144kts
19-Oct-19 08:44 34.516506 -119.786937 299 6153ft 143kts
19-Oct-19 08:45 34.537242 -119.829740 300 5940ft 149kts
19-Oct-19 08:46 34.556983 -119.871849 300 5854ft 141kts
19-Oct-19 08:46 34.573906 -119.905104 300 5929ft 132kts
19-Oct-19 08:48 34.596064 -119.950492 300 5972ft 135kts
19-Oct-19 08:49 34.615021 -119.990150 300 5970ft 136kts
19-Oct-19 08:50 34.634151 -120.030121 301 5933ft 135kts
19-Oct-19 08:50 34.650059 -120.063025 302 5890ft 134kts
19-Oct-19 08:51 34.669157 -120.101439 302 5907ft 131kts
19-Oct-19 08:53 34.689511 -120.145156 300 5987ft 121kts
19-Oct-19 08:53 34.703953 -120.177184 301 5686ft 138kts
19-Oct-19 08:54 34.723010 -120.217990 301 5333ft 137kts
19-Oct-19 08:55 34.742169 -120.258492 301 4913ft 138kts
19-Oct-19 08:56 34.765816 -120.295100 318 4452ft 138kts
19-Oct-19 08:57 34.793451 -120.327632 316 3851ft 132kts
19-Oct-19 08:58 34.819720 -120.359159 317 3236ft 129kts
19-Oct-19 08:59 34.842567 -120.385751 318 2538ft 106kts
19-Oct-19 09:00 34.863787 -120.411166 319 1743ft 101kts
19-Oct-19 09:01 34.883040 -120.433988 319 1422ft 97kts
19-Oct-19 09:02 34.903289 -120.459245 314 1956ft 117kts
19-Oct-19 09:03 34.927452 -120.493272 302 2207ft 138kts
19-Oct-19 09:04 34.944064 -120.531160 302 2922ft 123kts
19-Oct-19 09:05 34.960737 -120.569972 300 3064ft 138kts
19-Oct-19 09:06 34.978823 -120.611839 302 3057ft 140kts
19-Oct-19 09:07 34.995894 -120.654637 300 3062ft 140kts
19-Oct-19 09:08 35.022868 -120.657817 65 3086ft 146kts
19-Oct-19 09:09 35.013865 -120.607680 101 3028ft 153kts
19-Oct-19 09:10 34.995026 -120.562135 133 2768ft 152kts
19-Oct-19 09:11 34.964359 -120.531187 131 1905ft 124kts
19-Oct-19 09:12 34.940985 -120.503762 133 1296ft 114kts
19-Oct-19 09:13 34.919560 -120.477770 137 698ft 105kts
19-Oct-19 09:14 34.900918 -120.455561 135 264ft 59kts
19-Oct-19 09:15 34.898454 -120.449970 25 264ft 7kts
19-Oct-19 09:16 34.899131 -120.449892 221 264ft 0kts

Navigation Log

Ident Type
Flight plan parsing failed, navigation log unavailable